createdAt,value
2019-01-28T00:00:51.418Z,1.87
2019-01-28T00:01:55.511Z,4.90
2019-01-28T00:03:00.137Z,2.10
2019-01-28T00:04:03.868Z,2.00
2019-01-28T00:05:07.606Z,9.10
2019-01-28T00:06:11.125Z,2.63
2019-01-28T00:07:14.760Z,2.60
2019-01-28T00:08:18.534Z,2.90
2019-01-28T00:09:22.364Z,3.70
2019-01-28T00:10:26.148Z,2.80
2019-01-28T00:11:30.065Z,1.93
2019-01-28T00:12:33.822Z,2.40
2019-01-28T00:13:37.331Z,1.60
2019-01-28T00:14:40.937Z,2.73
2019-01-28T00:15:46.938Z,3.23
2019-01-28T00:16:50.987Z,3.10
2019-01-28T00:17:54.888Z,14.37
2019-01-28T00:18:58.314Z,1.80
2019-01-28T00:20:02.238Z,2.00
2019-01-28T00:21:06.023Z,1.30
2019-01-28T00:22:10.091Z,3.70
2019-01-28T00:23:13.584Z,1.93
2019-01-28T00:24:17.128Z,3.33
2019-01-28T00:25:20.625Z,1.30
2019-01-28T00:26:24.119Z,10.23
2019-01-28T00:27:27.757Z,2.50
2019-01-28T00:28:31.403Z,4.30
2019-01-28T00:29:34.966Z,4.20
2019-01-28T00:30:38.438Z,1.50
2019-01-28T00:31:42.009Z,1.13
2019-01-28T00:32:45.587Z,1.47
2019-01-28T00:33:49.099Z,2.13
2019-01-28T00:34:52.612Z,2.50
2019-01-28T00:35:56.159Z,1.97
2019-01-28T00:36:59.715Z,2.10
2019-01-28T00:38:03.313Z,2.63
2019-01-28T00:39:08.147Z,2.43
2019-01-28T00:40:12.184Z,2.50
2019-01-28T00:41:15.730Z,1.77
2019-01-28T00:42:19.233Z,1.40
2019-01-28T00:43:22.831Z,3.80
2019-01-28T00:44:26.311Z,1.10
2019-01-28T00:45:29.856Z,4.10
2019-01-28T00:46:33.400Z,5.37
2019-01-28T00:47:36.989Z,1.43
2019-01-28T00:48:40.640Z,1.50
2019-01-28T00:49:44.172Z,1.60
2019-01-28T00:50:47.656Z,1.67
2019-01-28T00:51:51.205Z,9.90
2019-01-28T00:52:54.804Z,2.90
2019-01-28T00:53:58.426Z,3.13
2019-01-28T00:55:02.000Z,4.67
2019-01-28T00:56:05.661Z,1.30
2019-01-28T00:57:09.211Z,1.23
2019-01-28T00:58:12.797Z,4.60
2019-01-28T00:59:16.463Z,1.27
2019-01-28T01:00:22.964Z,2.20
2019-01-28T01:01:26.550Z,1.70
2019-01-28T01:02:30.096Z,1.80
2019-01-28T01:03:33.703Z,7.13
2019-01-28T01:04:37.208Z,3.33
2019-01-28T01:05:40.842Z,1.13
2019-01-28T01:06:44.396Z,1.40
2019-01-28T01:07:48.178Z,5.03
2019-01-28T01:08:51.674Z,1.13
2019-01-28T01:09:55.205Z,2.50
2019-01-28T01:10:58.675Z,1.70
2019-01-28T01:12:02.180Z,1.70
2019-01-28T01:13:06.318Z,5.30
2019-01-28T01:14:09.875Z,1.63
2019-01-28T01:15:15.628Z,1.30
2019-01-28T01:16:19.158Z,1.80
2019-01-28T01:17:22.776Z,2.27
2019-01-28T01:18:26.368Z,1.50
2019-01-28T01:19:29.910Z,2.60
2019-01-28T01:20:33.602Z,2.83
2019-01-28T01:21:37.228Z,1.10
2019-01-28T01:22:40.862Z,1.53
2019-01-28T01:23:44.372Z,1.73
2019-01-28T01:24:47.907Z,1.90
2019-01-28T01:25:51.613Z,4.47
2019-01-28T01:26:55.145Z,1.40
2019-01-28T01:27:58.598Z,8.10
2019-01-28T01:29:02.170Z,1.50
2019-01-28T01:30:08.715Z,3.53
2019-01-28T01:31:12.217Z,6.60
2019-01-28T01:32:15.724Z,4.40
2019-01-28T01:33:19.282Z,1.30
2019-01-28T01:34:22.740Z,1.67
2019-01-28T01:35:26.321Z,3.37
2019-01-28T01:36:29.837Z,5.40
2019-01-28T01:37:33.336Z,1.70
2019-01-28T01:38:36.843Z,1.77
2019-01-28T01:39:40.347Z,1.20
2019-01-28T01:40:43.818Z,1.20
2019-01-28T01:41:47.408Z,2.00
2019-01-28T01:42:50.882Z,1.60
2019-01-28T01:43:54.401Z,0.70
2019-01-28T01:44:57.878Z,2.40
2019-01-28T01:46:01.449Z,2.57
2019-01-28T01:47:05.046Z,7.20
2019-01-28T01:48:08.580Z,5.10
2019-01-28T01:49:12.148Z,1.53
2019-01-28T01:50:15.758Z,4.53
2019-01-28T01:51:19.327Z,1.50
2019-01-28T01:52:22.902Z,5.13
2019-01-28T01:53:26.441Z,7.70
2019-01-28T01:54:29.947Z,2.97
2019-01-28T01:55:33.465Z,18.70
2019-01-28T01:56:37.012Z,3.63
2019-01-28T01:57:40.574Z,7.40
2019-01-28T01:58:44.050Z,3.90
2019-01-28T01:59:47.666Z,1.37
2019-01-28T02:00:51.233Z,1.57
2019-01-28T02:01:54.780Z,2.00
2019-01-28T02:02:58.301Z,3.80
2019-01-28T02:04:01.851Z,1.33
2019-01-28T02:05:07.182Z,2.67
2019-01-28T02:06:10.743Z,1.40
2019-01-28T02:07:14.358Z,2.03
2019-01-28T02:08:17.935Z,2.20
2019-01-28T02:09:21.777Z,2.50
2019-01-28T02:10:25.409Z,1.97
2019-01-28T02:11:28.967Z,4.53
2019-01-28T02:12:32.527Z,1.73
2019-01-28T02:13:36.102Z,1.47
2019-01-28T02:14:39.614Z,1.40
2019-01-28T02:15:43.274Z,2.90
2019-01-28T02:16:46.755Z,1.30
2019-01-28T02:17:50.248Z,3.17
2019-01-28T02:18:53.831Z,1.27
2019-01-28T02:19:57.324Z,2.30
2019-01-28T02:21:00.812Z,2.17
2019-01-28T02:22:04.455Z,2.27
2019-01-28T02:23:07.946Z,1.10
2019-01-28T02:24:11.466Z,1.97
2019-01-28T02:25:15.495Z,12.93
2019-01-28T02:26:19.085Z,1.70
2019-01-28T02:27:22.707Z,1.30
2019-01-28T02:28:26.200Z,1.00
2019-01-28T02:29:29.765Z,1.33
2019-01-28T02:30:33.365Z,1.10
2019-01-28T02:31:36.898Z,2.70
2019-01-28T02:32:40.449Z,1.50
2019-01-28T02:33:43.933Z,1.27
2019-01-28T02:34:47.514Z,0.87
2019-01-28T02:35:51.049Z,1.50
2019-01-28T02:36:54.518Z,2.30
2019-01-28T02:37:58.004Z,1.20
2019-01-28T02:39:01.671Z,1.80
2019-01-28T02:40:08.194Z,1.83
2019-01-28T02:41:11.745Z,1.10
2019-01-28T02:42:15.438Z,1.53
2019-01-28T02:43:18.942Z,2.50
2019-01-28T02:44:22.497Z,1.30
2019-01-28T02:45:26.026Z,2.00
2019-01-28T02:46:29.504Z,1.63
2019-01-28T02:47:33.016Z,4.40
2019-01-28T02:48:36.509Z,1.43
2019-01-28T02:49:40.022Z,1.00
2019-01-28T02:50:43.495Z,1.77
2019-01-28T02:51:47.047Z,1.20
2019-01-28T02:52:50.606Z,1.23
2019-01-28T02:53:54.090Z,0.87
2019-01-28T02:54:57.596Z,1.00
2019-01-28T02:56:01.126Z,0.80
2019-01-28T02:57:04.698Z,1.47
2019-01-28T02:58:08.155Z,1.70
2019-01-28T02:59:11.664Z,2.13
2019-01-28T03:00:18.124Z,1.00
2019-01-28T03:01:21.887Z,1.03
2019-01-28T03:02:25.533Z,1.97
2019-01-28T03:03:29.169Z,1.37
2019-01-28T03:04:32.745Z,1.37
2019-01-28T03:05:36.354Z,1.93
2019-01-28T03:06:40.016Z,1.27
2019-01-28T03:07:43.657Z,2.00
2019-01-28T03:08:47.194Z,1.13
2019-01-28T03:09:50.847Z,1.07
2019-01-28T03:10:54.401Z,1.43
2019-01-28T03:11:57.934Z,1.30
2019-01-28T03:13:01.512Z,1.03
2019-01-28T03:14:05.311Z,0.80
2019-01-28T03:15:10.310Z,1.30
2019-01-28T03:16:13.883Z,3.37
2019-01-28T03:17:17.339Z,1.10
2019-01-28T03:18:20.849Z,0.90
2019-01-28T03:19:24.401Z,1.13
2019-01-28T03:20:28.012Z,3.43
2019-01-28T03:21:31.528Z,2.10
2019-01-28T03:22:35.001Z,0.97
2019-01-28T03:23:38.553Z,2.43
2019-01-28T03:24:42.093Z,1.10
2019-01-28T03:25:45.644Z,2.90
2019-01-28T03:26:49.209Z,1.07
2019-01-28T03:27:52.752Z,2.80
2019-01-28T03:28:56.250Z,3.40
2019-01-28T03:29:59.747Z,1.57
2019-01-28T03:31:03.293Z,0.80
2019-01-28T03:32:06.777Z,0.87
2019-01-28T03:33:10.283Z,0.80
2019-01-28T03:34:13.767Z,1.00
2019-01-28T03:35:17.407Z,1.50
2019-01-28T03:36:21.027Z,0.90
2019-01-28T03:37:25.093Z,1.40
2019-01-28T03:38:28.603Z,0.83
2019-01-28T03:39:32.082Z,0.80
2019-01-28T03:40:35.649Z,1.07
2019-01-28T03:41:39.276Z,1.43
2019-01-28T03:42:43.184Z,2.30
2019-01-28T03:43:46.752Z,1.10
2019-01-28T03:44:50.350Z,1.10
2019-01-28T03:45:53.923Z,1.03
2019-01-28T03:46:57.524Z,0.80
2019-01-28T03:48:01.057Z,1.70
2019-01-28T03:49:04.868Z,1.63
2019-01-28T03:50:11.448Z,9.13
2019-01-28T03:51:14.896Z,1.10
2019-01-28T03:52:18.555Z,1.10
2019-01-28T03:53:22.330Z,1.73
2019-01-28T03:54:25.816Z,1.23
2019-01-28T03:55:29.315Z,1.43
2019-01-28T03:56:32.863Z,3.30
2019-01-28T03:57:36.389Z,1.07
2019-01-28T03:58:40.068Z,3.03
2019-01-28T03:59:43.538Z,0.90
2019-01-28T04:00:47.169Z,1.23
2019-01-28T04:01:50.659Z,5.00
2019-01-28T04:02:54.184Z,0.80
2019-01-28T04:03:57.713Z,1.27
2019-01-28T04:05:01.281Z,1.27
2019-01-28T04:06:04.907Z,3.90
2019-01-28T04:07:08.538Z,0.63
2019-01-28T04:08:12.152Z,4.43
2019-01-28T04:09:15.681Z,1.67
2019-01-28T04:10:21.023Z,0.70
2019-01-28T04:11:24.557Z,3.00
2019-01-28T04:12:28.146Z,2.93
2019-01-28T04:13:31.747Z,1.00
2019-01-28T04:14:35.360Z,1.00
2019-01-28T04:15:39.049Z,0.80
2019-01-28T04:16:42.672Z,0.83
2019-01-28T04:17:46.313Z,1.33
2019-01-28T04:18:49.845Z,1.27
2019-01-28T04:19:53.489Z,2.10
2019-01-28T04:20:58.489Z,1.10
2019-01-28T04:22:01.975Z,2.10
2019-01-28T04:23:05.604Z,3.07
2019-01-28T04:24:09.098Z,2.90
2019-01-28T04:25:13.554Z,5.20
2019-01-28T04:26:17.064Z,0.73
2019-01-28T04:27:20.608Z,0.93
2019-01-28T04:28:24.118Z,0.90
2019-01-28T04:29:27.645Z,1.77
2019-01-28T04:30:31.205Z,4.33
2019-01-28T04:31:34.717Z,0.93
2019-01-28T04:32:38.254Z,0.90
2019-01-28T04:33:41.754Z,2.17
2019-01-28T04:34:45.235Z,0.70
2019-01-28T04:35:48.812Z,1.00
2019-01-28T04:36:52.377Z,0.70
2019-01-28T04:37:55.861Z,1.90
2019-01-28T04:38:59.337Z,0.70
2019-01-28T04:40:02.977Z,2.63
2019-01-28T04:41:06.628Z,0.83
2019-01-28T04:42:10.175Z,1.10
2019-01-28T04:43:13.659Z,1.40
2019-01-28T04:44:18.175Z,1.60
2019-01-28T04:45:21.817Z,1.63
2019-01-28T04:46:25.386Z,5.30
2019-01-28T04:47:28.868Z,1.20
2019-01-28T04:48:32.387Z,7.73
2019-01-28T04:49:36.046Z,1.27
2019-01-28T04:50:39.555Z,1.10
2019-01-28T04:51:43.079Z,1.03
2019-01-28T04:52:46.912Z,0.60
2019-01-28T04:53:50.385Z,1.33
2019-01-28T04:54:53.907Z,1.53
2019-01-28T04:55:57.516Z,5.13
2019-01-28T04:57:01.119Z,1.10
2019-01-28T04:58:04.942Z,0.93
2019-01-28T04:59:08.505Z,0.73
2019-01-28T05:00:20.783Z,1.00
2019-01-28T05:01:24.409Z,1.20
2019-01-28T05:02:27.923Z,1.60
2019-01-28T05:03:31.482Z,1.10
2019-01-28T05:04:35.101Z,2.73
2019-01-28T05:05:38.659Z,1.23
2019-01-28T05:06:42.153Z,3.13
2019-01-28T05:07:45.899Z,4.57
2019-01-28T05:08:49.386Z,1.70
2019-01-28T05:09:52.865Z,5.93
2019-01-28T05:10:58.929Z,2.90
2019-01-28T05:12:02.441Z,0.67
2019-01-28T05:13:06.127Z,2.23
2019-01-28T05:14:09.719Z,1.60
2019-01-28T05:15:15.638Z,0.97
2019-01-28T05:16:19.189Z,0.60
2019-01-28T05:17:22.680Z,0.90
2019-01-28T05:18:26.183Z,2.60
2019-01-28T05:19:30.818Z,0.63
2019-01-28T05:20:34.416Z,4.43
2019-01-28T05:21:37.917Z,0.80
2019-01-28T05:22:41.644Z,3.97
2019-01-28T05:23:45.148Z,1.23
2019-01-28T05:24:48.657Z,4.70
2019-01-28T05:25:52.137Z,5.27
2019-01-28T05:26:55.768Z,1.93
2019-01-28T05:27:59.262Z,7.10
2019-01-28T05:29:02.865Z,1.00
2019-01-28T05:30:12.443Z,4.57
2019-01-28T05:31:16.075Z,8.20
2019-01-28T05:32:19.577Z,1.37
2019-01-28T05:33:23.080Z,3.23
2019-01-28T05:34:26.722Z,2.10
2019-01-28T05:35:30.357Z,3.03
2019-01-28T05:36:34.343Z,1.83
2019-01-28T05:37:37.818Z,3.30
2019-01-28T05:38:41.314Z,1.03
2019-01-28T05:39:45.043Z,2.90
2019-01-28T05:40:48.607Z,4.80
2019-01-28T05:41:52.393Z,1.10
2019-01-28T05:42:56.040Z,6.00
2019-01-28T05:43:59.762Z,6.40
2019-01-28T05:45:03.871Z,2.50
2019-01-28T05:46:07.498Z,4.23
2019-01-28T05:47:11.047Z,3.10
2019-01-28T05:48:14.669Z,1.90
2019-01-28T05:49:18.223Z,3.07
2019-01-28T05:50:21.867Z,7.40
2019-01-28T05:51:25.491Z,3.13
2019-01-28T05:52:29.085Z,7.60
2019-01-28T05:53:32.716Z,6.97
2019-01-28T05:54:36.269Z,5.47
2019-01-28T05:55:39.857Z,14.73
2019-01-28T05:56:43.429Z,9.40
2019-01-28T05:57:47.530Z,6.77
2019-01-28T05:58:51.016Z,15.00
2019-01-28T05:59:54.504Z,23.57
2019-01-28T06:00:58.085Z,21.53
2019-01-28T06:02:01.652Z,17.00
2019-01-28T06:03:05.281Z,35.60
2019-01-28T06:04:08.910Z,17.30
2019-01-28T06:05:13.105Z,38.77
2019-01-28T06:06:16.615Z,22.10
2019-01-28T06:07:20.106Z,32.20
2019-01-28T06:08:23.657Z,39.23
2019-01-28T06:09:27.154Z,31.80
2019-01-28T06:10:30.713Z,25.63
2019-01-28T06:11:34.400Z,46.23
2019-01-28T06:12:37.994Z,33.00
2019-01-28T06:13:41.559Z,33.20
2019-01-28T06:14:45.060Z,33.93
2019-01-28T06:15:48.705Z,26.63
2019-01-28T06:16:52.213Z,31.30
2019-01-28T06:17:55.787Z,27.70
2019-01-28T06:18:59.354Z,38.10
2019-01-28T06:20:03.112Z,43.73
2019-01-28T06:21:06.678Z,35.97
2019-01-28T06:22:10.357Z,32.73
2019-01-28T06:23:13.892Z,26.37
2019-01-28T06:24:17.361Z,37.77
2019-01-28T06:25:21.319Z,26.07
2019-01-28T06:26:25.020Z,28.50
2019-01-28T06:27:28.531Z,32.07
2019-01-28T06:28:32.223Z,29.60
2019-01-28T06:29:35.781Z,38.00
2019-01-28T06:30:39.517Z,28.20
2019-01-28T06:31:42.987Z,24.37
2019-01-28T06:32:46.585Z,22.93
2019-01-28T06:33:50.096Z,24.63
2019-01-28T06:34:53.646Z,30.93
2019-01-28T06:35:57.170Z,34.03
2019-01-28T06:37:00.638Z,27.23
2019-01-28T06:38:04.378Z,25.87
2019-01-28T06:39:09.190Z,31.40
2019-01-28T06:40:16.123Z,32.63
2019-01-28T06:41:19.714Z,26.87
2019-01-28T06:42:23.358Z,18.90
2019-01-28T06:43:26.890Z,20.27
2019-01-28T06:44:30.449Z,28.53
2019-01-28T06:45:34.258Z,27.27
2019-01-28T06:46:38.155Z,20.57
2019-01-28T06:47:46.704Z,24.07
2019-01-28T06:48:47.093Z,26.97
2019-01-28T06:49:50.651Z,20.73
2019-01-28T06:50:54.220Z,20.13
2019-01-28T06:51:57.749Z,20.50
2019-01-28T06:53:01.329Z,16.33
2019-01-28T06:54:05.088Z,25.13
2019-01-28T06:55:10.437Z,22.53
2019-01-28T06:56:14.095Z,27.63
2019-01-28T06:57:17.585Z,22.03
2019-01-28T06:58:21.105Z,20.53
2019-01-28T06:59:24.795Z,16.80
2019-01-28T07:00:31.334Z,20.00
2019-01-28T07:01:34.911Z,17.17
2019-01-28T07:02:38.477Z,17.10
2019-01-28T07:03:42.029Z,18.33
2019-01-28T07:04:45.683Z,21.47
2019-01-28T07:05:49.165Z,20.33
2019-01-28T07:06:52.739Z,26.27
2019-01-28T07:07:56.277Z,23.53
2019-01-28T07:08:59.786Z,17.13
2019-01-28T07:10:04.065Z,21.73
2019-01-28T07:11:07.622Z,22.73
2019-01-28T07:12:11.191Z,20.63
2019-01-28T07:13:14.748Z,18.70
2019-01-28T07:14:18.380Z,19.83
2019-01-28T07:15:23.443Z,20.50
2019-01-28T07:16:27.016Z,18.47
2019-01-28T07:17:30.558Z,17.53
2019-01-28T07:18:34.139Z,16.37
2019-01-28T07:19:37.619Z,12.33
2019-01-28T07:20:41.159Z,10.90
2019-01-28T07:21:44.700Z,15.87
2019-01-28T07:22:48.347Z,9.80
2019-01-28T07:23:51.857Z,10.33
2019-01-28T07:24:55.438Z,10.03
2019-01-28T07:25:58.973Z,10.00
2019-01-28T07:27:02.486Z,9.77
2019-01-28T07:28:06.224Z,7.67
2019-01-28T07:29:09.700Z,6.60
2019-01-28T07:30:21.910Z,4.37
2019-01-28T07:31:25.476Z,5.40
2019-01-28T07:32:28.990Z,8.23
2019-01-28T07:33:32.753Z,4.80
2019-01-28T07:34:36.235Z,4.20
2019-01-28T07:35:39.941Z,7.63
2019-01-28T07:36:43.537Z,8.43
2019-01-28T07:37:47.431Z,8.20
2019-01-28T07:38:51.024Z,6.10
2019-01-28T07:40:00.988Z,4.83
2019-01-28T07:41:00.449Z,6.93
2019-01-28T07:42:03.996Z,6.73
2019-01-28T07:43:07.560Z,8.73
2019-01-28T07:44:11.387Z,5.40
2019-01-28T07:45:24.794Z,11.30
2019-01-28T07:46:28.354Z,5.67
2019-01-28T07:47:31.930Z,4.60
2019-01-28T07:48:35.416Z,3.97
2019-01-28T07:49:40.859Z,5.37
2019-01-28T07:50:44.519Z,7.00
2019-01-28T07:51:48.530Z,3.50
2019-01-28T07:52:52.120Z,6.10
2019-01-28T07:53:55.642Z,7.63
2019-01-28T07:54:59.150Z,8.50
2019-01-28T07:56:02.966Z,6.70
2019-01-28T07:57:06.655Z,5.83
2019-01-28T07:58:10.274Z,3.33
2019-01-28T07:59:13.845Z,4.83
2019-01-28T08:00:22.633Z,8.10
2019-01-28T08:01:26.286Z,4.40
2019-01-28T08:02:29.799Z,3.00
2019-01-28T08:03:33.437Z,3.07
2019-01-28T08:04:37.064Z,5.83
2019-01-28T08:05:40.801Z,6.33
2019-01-28T08:06:44.413Z,8.33
2019-01-28T08:07:48.123Z,8.23
2019-01-28T08:08:51.614Z,2.20
2019-01-28T08:09:55.181Z,2.80
2019-01-28T08:10:58.835Z,4.73
2019-01-28T08:12:02.418Z,5.57
2019-01-28T08:13:06.359Z,4.00
2019-01-28T08:14:09.991Z,4.53
2019-01-28T08:15:16.490Z,2.47
2019-01-28T08:16:20.080Z,4.50
2019-01-28T08:17:24.085Z,2.60
2019-01-28T08:18:27.718Z,4.10
2019-01-28T08:19:31.440Z,3.23
2019-01-28T08:20:35.001Z,8.93
2019-01-28T08:21:38.487Z,2.33
2019-01-28T08:22:42.237Z,3.00
2019-01-28T08:23:45.736Z,6.03
2019-01-28T08:24:50.513Z,4.70
2019-01-28T08:25:59.347Z,3.67
2019-01-28T08:27:02.863Z,3.43
2019-01-28T08:28:06.595Z,5.57
2019-01-28T08:29:10.087Z,2.90
2019-01-28T08:30:16.956Z,4.50
2019-01-28T08:31:20.977Z,3.73
2019-01-28T08:32:24.830Z,7.40
2019-01-28T08:33:28.548Z,2.20
2019-01-28T08:34:32.140Z,3.27
2019-01-28T08:35:36.880Z,6.07
2019-01-28T08:36:40.994Z,3.23
2019-01-28T08:37:44.667Z,4.30
2019-01-28T08:38:48.170Z,6.40
2019-01-28T08:39:52.022Z,6.73
2019-01-28T08:40:56.044Z,2.63
2019-01-28T08:41:59.575Z,2.83
2019-01-28T08:43:03.194Z,5.80
2019-01-28T08:44:07.179Z,3.67
2019-01-28T08:45:12.494Z,7.10
2019-01-28T08:46:16.232Z,4.77
2019-01-28T08:47:20.005Z,4.83
2019-01-28T08:48:23.585Z,3.90
2019-01-28T08:49:28.764Z,4.27
2019-01-28T08:50:32.248Z,3.93
2019-01-28T08:51:35.785Z,4.10
2019-01-28T08:52:39.434Z,5.47
2019-01-28T08:53:42.899Z,4.20
2019-01-28T08:54:46.496Z,4.43
2019-01-28T08:55:50.277Z,5.00
2019-01-28T08:56:53.859Z,3.53
2019-01-28T08:57:57.864Z,9.80
2019-01-28T08:59:01.506Z,3.00
2019-01-28T09:00:08.084Z,2.73
2019-01-28T09:01:11.589Z,4.20
2019-01-28T09:02:15.429Z,2.23
2019-01-28T09:03:19.011Z,2.37
2019-01-28T09:04:22.971Z,3.07
2019-01-28T09:05:26.825Z,2.73
2019-01-28T09:06:30.410Z,2.90
2019-01-28T09:07:34.139Z,1.73
2019-01-28T09:08:39.542Z,3.30
2019-01-28T09:09:43.559Z,4.10
2019-01-28T09:10:47.191Z,1.27
2019-01-28T09:11:50.771Z,5.20
2019-01-28T09:12:54.530Z,2.63
2019-01-28T09:13:58.124Z,3.23
2019-01-28T09:15:02.852Z,4.30
2019-01-28T09:16:06.660Z,2.43
2019-01-28T09:17:10.295Z,5.43
2019-01-28T09:18:14.036Z,2.03
2019-01-28T09:19:17.646Z,3.43
2019-01-28T09:20:25.967Z,3.87
2019-01-28T09:21:29.581Z,4.53
2019-01-28T09:22:33.046Z,3.63
2019-01-28T09:23:36.550Z,2.70
2019-01-28T09:24:40.089Z,2.00
2019-01-28T09:25:43.732Z,3.43
2019-01-28T09:26:47.319Z,3.13
2019-01-28T09:27:50.880Z,3.27
2019-01-28T09:28:54.571Z,3.47
2019-01-28T09:29:58.057Z,2.67
2019-01-28T09:31:01.599Z,3.13
2019-01-28T09:32:05.529Z,2.63
2019-01-28T09:33:09.133Z,3.13
2019-01-28T09:34:12.707Z,3.70
2019-01-28T09:35:16.344Z,3.33
2019-01-28T09:36:19.900Z,2.47
2019-01-28T09:37:23.469Z,3.50
2019-01-28T09:38:27.090Z,2.60
2019-01-28T09:39:30.615Z,3.50
2019-01-28T09:40:36.068Z,2.37
2019-01-28T09:41:39.651Z,3.50
2019-01-28T09:42:43.243Z,2.03
2019-01-28T09:43:46.904Z,2.93
2019-01-28T09:44:50.420Z,2.40
2019-01-28T09:45:54.051Z,3.07
2019-01-28T09:46:57.612Z,2.20
2019-01-28T09:48:01.206Z,2.40
2019-01-28T09:49:04.775Z,3.00
2019-01-28T09:50:11.285Z,2.80
2019-01-28T09:51:15.012Z,1.50
2019-01-28T09:52:18.751Z,2.80
2019-01-28T09:53:22.377Z,3.57
2019-01-28T09:54:25.868Z,2.30
2019-01-28T09:55:29.633Z,1.27
2019-01-28T09:56:33.133Z,3.50
2019-01-28T09:57:36.750Z,2.00
2019-01-28T09:58:40.394Z,2.83
2019-01-28T09:59:44.118Z,2.93
2019-01-28T10:00:48.999Z,3.50
2019-01-28T10:01:52.505Z,1.60
2019-01-28T10:02:56.235Z,3.83
2019-01-28T10:03:59.835Z,2.30
2019-01-28T10:05:04.194Z,2.67
2019-01-28T10:06:07.802Z,4.53
2019-01-28T10:07:11.453Z,2.70
2019-01-28T10:08:15.132Z,1.90
2019-01-28T10:09:19.275Z,1.77
2019-01-28T10:10:23.217Z,2.80
2019-01-28T10:11:26.925Z,3.10
2019-01-28T10:12:30.532Z,1.90
2019-01-28T10:13:34.096Z,3.07
2019-01-28T10:14:37.611Z,1.10
2019-01-28T10:15:41.257Z,3.80
2019-01-28T10:16:44.791Z,1.70
2019-01-28T10:17:48.334Z,2.00
2019-01-28T10:18:51.865Z,1.70
2019-01-28T10:19:55.491Z,1.77
2019-01-28T10:20:59.073Z,1.20
2019-01-28T10:22:02.641Z,2.87
2019-01-28T10:23:06.460Z,1.30
2019-01-28T10:24:10.129Z,3.10
2019-01-28T10:25:14.146Z,1.97
2019-01-28T10:26:17.692Z,1.90
2019-01-28T10:27:21.270Z,3.20
2019-01-28T10:28:24.877Z,3.23
2019-01-28T10:29:28.488Z,2.00
2019-01-28T10:30:42.948Z,2.20
2019-01-28T10:31:46.666Z,2.90
2019-01-28T10:32:50.237Z,2.13
2019-01-28T10:33:53.789Z,2.53
2019-01-28T10:34:57.365Z,5.53
2019-01-28T10:36:01.000Z,4.97
2019-01-28T10:37:04.654Z,6.80
2019-01-28T10:38:08.599Z,2.40
2019-01-28T10:39:12.251Z,2.93
2019-01-28T10:40:22.051Z,1.73
2019-01-28T10:41:25.566Z,2.70
2019-01-28T10:42:29.115Z,3.33
2019-01-28T10:43:32.602Z,4.50
2019-01-28T10:44:36.111Z,1.90
2019-01-28T10:45:39.848Z,1.90
2019-01-28T10:46:43.425Z,2.20
2019-01-28T10:47:47.054Z,2.90
2019-01-28T10:48:50.593Z,3.30
2019-01-28T10:49:54.109Z,1.37
2019-01-28T10:50:57.590Z,2.30
2019-01-28T10:52:01.309Z,1.50
2019-01-28T10:53:05.041Z,1.73
2019-01-28T10:54:08.646Z,2.47
2019-01-28T10:55:14.146Z,2.87
2019-01-28T10:56:17.847Z,2.40
2019-01-28T10:57:21.410Z,1.97
2019-01-28T10:58:25.052Z,2.20
2019-01-28T10:59:28.660Z,2.10
2019-01-28T11:00:38.083Z,1.23
2019-01-28T11:01:41.738Z,1.70
2019-01-28T11:02:45.364Z,2.60
2019-01-28T11:03:48.867Z,2.57
2019-01-28T11:04:52.499Z,4.43
2019-01-28T11:05:56.049Z,1.27
2019-01-28T11:06:59.559Z,3.43
2019-01-28T11:08:03.209Z,2.43
2019-01-28T11:09:08.175Z,1.77
2019-01-28T11:10:17.752Z,2.00
2019-01-28T11:11:21.377Z,2.07
2019-01-28T11:12:25.163Z,2.10
2019-01-28T11:13:28.779Z,2.30
2019-01-28T11:14:32.514Z,2.53
2019-01-28T11:15:36.312Z,1.80
2019-01-28T11:16:39.985Z,2.23
2019-01-28T11:17:43.739Z,1.53
2019-01-28T11:18:47.560Z,1.43
2019-01-28T11:19:51.179Z,1.80
2019-01-28T11:20:54.699Z,2.30
2019-01-28T11:21:58.397Z,1.20
2019-01-28T11:23:02.212Z,2.07
2019-01-28T11:24:05.927Z,1.90
2019-01-28T11:25:12.498Z,1.87
2019-01-28T11:26:16.187Z,2.40
2019-01-28T11:27:19.857Z,1.47
2019-01-28T11:28:23.696Z,1.90
2019-01-28T11:29:27.318Z,1.70
2019-01-28T11:30:38.858Z,1.93
2019-01-28T11:31:42.447Z,4.37
2019-01-28T11:32:46.194Z,2.63
2019-01-28T11:33:49.776Z,2.50
2019-01-28T11:34:53.386Z,1.90
2019-01-28T11:36:04.729Z,2.23
2019-01-28T11:37:02.384Z,1.93
2019-01-28T11:38:06.261Z,1.90
2019-01-28T11:39:10.970Z,1.93
2019-01-28T11:40:16.501Z,3.70
2019-01-28T11:41:20.077Z,2.83
2019-01-28T11:42:23.613Z,1.67
2019-01-28T11:43:27.131Z,1.67
2019-01-28T11:44:30.865Z,1.50
2019-01-28T11:45:52.349Z,1.83
2019-01-28T11:46:56.091Z,1.40
2019-01-28T11:47:59.849Z,2.33
2019-01-28T11:49:05.988Z,1.33
2019-01-28T11:50:12.163Z,1.00
2019-01-28T11:51:15.716Z,2.67
2019-01-28T11:52:19.302Z,1.90
2019-01-28T11:53:22.840Z,1.20
2019-01-28T11:54:26.332Z,2.10
2019-01-28T11:55:29.927Z,2.00
2019-01-28T11:56:33.414Z,2.57
2019-01-28T11:57:36.922Z,1.37
2019-01-28T11:58:40.483Z,1.30
2019-01-28T11:59:44.023Z,1.83
2019-01-28T12:01:01.128Z,1.80
2019-01-28T12:02:04.990Z,4.23
2019-01-28T12:03:08.684Z,1.90
2019-01-28T12:04:12.235Z,1.30
2019-01-28T12:05:15.798Z,3.40
2019-01-28T12:06:19.375Z,1.40
2019-01-28T12:07:23.007Z,1.20
2019-01-28T12:08:26.566Z,1.27
2019-01-28T12:09:30.061Z,2.30
2019-01-28T12:10:33.718Z,2.07
2019-01-28T12:11:37.430Z,1.80
2019-01-28T12:12:40.984Z,2.30
2019-01-28T12:13:44.538Z,1.30
2019-01-28T12:14:48.012Z,1.87
2019-01-28T12:15:51.572Z,1.57
2019-01-28T12:16:55.143Z,0.70
2019-01-28T12:17:58.695Z,1.30
2019-01-28T12:19:02.189Z,1.70
2019-01-28T12:20:08.775Z,1.63
2019-01-28T12:21:12.048Z,1.57
2019-01-28T12:22:15.633Z,1.20
2019-01-28T12:23:19.101Z,2.03
2019-01-28T12:24:22.618Z,1.57
2019-01-28T12:25:26.282Z,1.33
2019-01-28T12:26:29.888Z,1.23
2019-01-28T12:27:33.515Z,1.63
2019-01-28T12:28:37.075Z,0.90
2019-01-28T12:29:40.575Z,1.63
2019-01-28T12:30:44.194Z,3.20
2019-01-28T12:31:47.741Z,1.97
2019-01-28T12:32:51.330Z,1.20
2019-01-28T12:33:54.879Z,1.47
2019-01-28T12:34:58.369Z,1.40
2019-01-28T12:36:01.999Z,1.47
2019-01-28T12:37:05.667Z,2.27
2019-01-28T12:38:09.319Z,1.90
2019-01-28T12:39:12.947Z,1.53
2019-01-28T12:40:21.009Z,2.50
2019-01-28T12:41:24.579Z,1.40
2019-01-28T12:42:28.125Z,1.63
2019-01-28T12:43:32.052Z,1.80
2019-01-28T12:44:35.502Z,1.83
2019-01-28T12:45:39.116Z,1.03
2019-01-28T12:46:42.840Z,1.40
2019-01-28T12:47:46.556Z,1.50
2019-01-28T12:48:50.213Z,1.87
2019-01-28T12:49:53.700Z,2.50
2019-01-28T12:50:58.711Z,1.27
2019-01-28T12:52:02.286Z,1.33
2019-01-28T12:53:05.971Z,1.60
2019-01-28T12:54:09.653Z,1.70
2019-01-28T12:55:23.448Z,1.10
2019-01-28T12:56:26.948Z,0.80
2019-01-28T12:57:30.577Z,1.30
2019-01-28T12:58:34.233Z,1.27
2019-01-28T12:59:37.823Z,1.60
2019-01-28T13:00:43.129Z,1.23
2019-01-28T13:01:46.702Z,2.03
2019-01-28T13:02:52.040Z,1.87
2019-01-28T13:03:55.599Z,3.07
2019-01-28T13:04:59.261Z,3.40
2019-01-28T13:06:02.845Z,1.10
2019-01-28T13:07:06.456Z,1.47
2019-01-28T13:08:10.080Z,1.87
2019-01-28T13:09:14.266Z,2.13
2019-01-28T13:10:25.757Z,1.63
2019-01-28T13:11:29.515Z,1.40
2019-01-28T13:12:33.076Z,1.37
2019-01-28T13:13:41.091Z,1.93
2019-01-28T13:14:42.238Z,2.37
2019-01-28T13:15:46.082Z,0.90
2019-01-28T13:16:49.818Z,1.90
2019-01-28T13:17:54.139Z,1.47
2019-01-28T13:18:57.642Z,1.83
2019-01-28T13:20:01.352Z,0.80
2019-01-28T13:21:05.161Z,1.17
2019-01-28T13:22:08.960Z,0.80
2019-01-28T13:23:12.567Z,1.33
2019-01-28T13:24:16.075Z,2.07
2019-01-28T13:25:22.393Z,1.43
2019-01-28T13:26:25.962Z,1.10
2019-01-28T13:27:29.517Z,1.30
2019-01-28T13:28:33.167Z,2.83
2019-01-28T13:29:36.615Z,0.93
2019-01-28T13:30:40.455Z,1.77
2019-01-28T13:31:43.972Z,1.70
2019-01-28T13:32:48.208Z,0.90
2019-01-28T13:33:51.819Z,1.27
2019-01-28T13:34:55.458Z,1.30
2019-01-28T13:35:59.045Z,1.27
2019-01-28T13:37:02.675Z,1.13
2019-01-28T13:38:06.337Z,1.90
2019-01-28T13:39:10.034Z,2.80
2019-01-28T13:40:15.442Z,1.80
2019-01-28T13:41:19.045Z,1.00
2019-01-28T13:42:22.578Z,2.13
2019-01-28T13:43:26.190Z,1.90
2019-01-28T13:44:29.774Z,1.27
2019-01-28T13:45:33.384Z,3.50
2019-01-28T13:46:37.044Z,2.13
2019-01-28T13:47:40.905Z,1.45
2019-01-28T13:48:44.534Z,2.13
2019-01-28T13:49:48.100Z,0.70
2019-01-28T13:50:51.728Z,2.40
2019-01-28T13:51:55.310Z,1.30
2019-01-28T13:52:58.866Z,2.10
2019-01-28T13:54:03.436Z,1.10
2019-01-28T13:55:08.847Z,0.80
2019-01-28T13:56:12.474Z,1.50
2019-01-28T13:57:16.064Z,2.13
2019-01-28T13:58:19.712Z,1.53
2019-01-28T13:59:23.245Z,1.30
2019-01-28T14:00:28.978Z,1.53
2019-01-28T14:01:32.538Z,1.47
2019-01-28T14:02:36.219Z,1.10
2019-01-28T14:03:39.794Z,1.33
2019-01-28T14:04:43.362Z,1.47
2019-01-28T14:05:46.914Z,3.53
2019-01-28T14:06:50.488Z,0.97
2019-01-28T14:07:54.536Z,1.37